<?xml version="1.0" encoding="UTF-8" standalone="no" ?>
<gpx xmlns="http://www.topografix.com/GPX/1/1" xmlns:xsi="http://www.w3.org/2001/XMLSchema-instance" xsi:schemaLocation="http://www.topografix.com/GPX/1/1 http://www.topografix.com/GPX/1/1/gpx.xsd" version="1.1" creator="VisuGPX - https://www.visugpx.com">
  <metadata>
    <name>Marche d'approche du Roujanel en RG</name>
    <desc><![CDATA[Marche d'approche pour le canyon du Roujanel. Super chemin très agréable et bien ombragé, une belle balade de 45/ 50 min. ]]></desc>
  </metadata>
  <trk>
    <name><![CDATA[2019-06-01 09:06 roujanel]]></name>
    <desc><![CDATA[<p>Heure de départ: 06/01/2019 09:06<br/>Heure d'arrivée: 06/01/2019 10:00<br/>Distance: 2,3 km (00:53)<br/>Temps déplacement: 00:47<br/>Vitesse moyenne: 2,54 km/h<br/>Vitesse moyenne mouv.: 2,88 km/h<br/>Vitesse Max.: 6,01 km/h<br/>Altitude minimale: 610 m<br/>Altitude maximale: 856 m<br/>Vitesse de montée: 320,4 m/h<br/>Vitesse de descente: -86,9 m/h<br/>Gain d'altitude: 242 m<br/>Perte d'altitude: -3 m<br/>Temps de montée: 00:45<br/>Temps de descente: 00:02<br/></p><hr align="center" width="480" style="height: 2px; width: 517px"/>]]></desc>
    <trkseg>
      <trkpt lat="44.53802" lon="3.96333">
        <ele>635.41</ele>
        <time>2019-06-01T07:06:44Z</time>
      </trkpt>
      <trkpt lat="44.53786" lon="3.96346">
        <ele>634.12</ele>
        <time>2019-06-01T07:07:02Z</time>
      </trkpt>
      <trkpt lat="44.53768" lon="3.96343">
        <ele>633.35</ele>
        <time>2019-06-01T07:07:14Z</time>
      </trkpt>
      <trkpt lat="44.53763" lon="3.96318">
        <ele>631.79</ele>
        <time>2019-06-01T07:07:46Z</time>
      </trkpt>
      <trkpt lat="44.53765" lon="3.96298">
        <ele>629.77</ele>
        <time>2019-06-01T07:08:21Z</time>
      </trkpt>
      <trkpt lat="44.53765" lon="3.96272">
        <ele>628.58</ele>
        <time>2019-06-01T07:08:51Z</time>
      </trkpt>
      <trkpt lat="44.53771" lon="3.96246">
        <ele>627.69</ele>
        <time>2019-06-01T07:09:09Z</time>
      </trkpt>
      <trkpt lat="44.53783" lon="3.96226">
        <ele>626.79</ele>
        <time>2019-06-01T07:09:25Z</time>
      </trkpt>
      <trkpt lat="44.53796" lon="3.96207">
        <ele>625.95</ele>
        <time>2019-06-01T07:09:42Z</time>
      </trkpt>
      <trkpt lat="44.53813" lon="3.96195">
        <ele>624.96</ele>
        <time>2019-06-01T07:10:05Z</time>
      </trkpt>
      <trkpt lat="44.53825" lon="3.96202">
        <ele>614.19</ele>
        <time>2019-06-01T07:11:12Z</time>
      </trkpt>
      <trkpt lat="44.53829" lon="3.96227">
        <ele>613.32</ele>
        <time>2019-06-01T07:11:53Z</time>
      </trkpt>
      <trkpt lat="44.53827" lon="3.96254">
        <ele>612.44</ele>
        <time>2019-06-01T07:12:10Z</time>
      </trkpt>
      <trkpt lat="44.53842" lon="3.96237">
        <ele>610.8</ele>
        <time>2019-06-01T07:13:11Z</time>
      </trkpt>
      <trkpt lat="44.5385" lon="3.96214">
        <ele>610.82</ele>
        <time>2019-06-01T07:13:46Z</time>
      </trkpt>
      <trkpt lat="44.53861" lon="3.96195">
        <ele>611.62</ele>
        <time>2019-06-01T07:14:31Z</time>
      </trkpt>
      <trkpt lat="44.53868" lon="3.9617">
        <ele>613.6</ele>
        <time>2019-06-01T07:15:12Z</time>
      </trkpt>
      <trkpt lat="44.53878" lon="3.96148">
        <ele>617.27</ele>
        <time>2019-06-01T07:16:11Z</time>
      </trkpt>
      <trkpt lat="44.53895" lon="3.96139">
        <ele>620.87</ele>
        <time>2019-06-01T07:16:40Z</time>
      </trkpt>
      <trkpt lat="44.53903" lon="3.96115">
        <ele>623.2</ele>
        <time>2019-06-01T07:17:00Z</time>
      </trkpt>
      <trkpt lat="44.53906" lon="3.9609">
        <ele>625.06</ele>
        <time>2019-06-01T07:17:19Z</time>
      </trkpt>
      <trkpt lat="44.53924" lon="3.96082">
        <ele>627.08</ele>
        <time>2019-06-01T07:17:41Z</time>
      </trkpt>
      <trkpt lat="44.53936" lon="3.96062">
        <ele>628.55</ele>
        <time>2019-06-01T07:17:58Z</time>
      </trkpt>
      <trkpt lat="44.53945" lon="3.9604">
        <ele>633.07</ele>
        <time>2019-06-01T07:18:46Z</time>
      </trkpt>
      <trkpt lat="44.53957" lon="3.96019">
        <ele>635.65</ele>
        <time>2019-06-01T07:19:08Z</time>
      </trkpt>
      <trkpt lat="44.53961" lon="3.95994">
        <ele>638.53</ele>
        <time>2019-06-01T07:19:31Z</time>
      </trkpt>
      <trkpt lat="44.53969" lon="3.95971">
        <ele>640.5</ele>
        <time>2019-06-01T07:19:46Z</time>
      </trkpt>
      <trkpt lat="44.53984" lon="3.95956">
        <ele>643.24</ele>
        <time>2019-06-01T07:20:05Z</time>
      </trkpt>
      <trkpt lat="44.53987" lon="3.95931">
        <ele>646.47</ele>
        <time>2019-06-01T07:20:25Z</time>
      </trkpt>
      <trkpt lat="44.53992" lon="3.95906">
        <ele>657.4</ele>
        <time>2019-06-01T07:21:33Z</time>
      </trkpt>
      <trkpt lat="44.54007" lon="3.95891">
        <ele>661.1</ele>
        <time>2019-06-01T07:21:56Z</time>
      </trkpt>
      <trkpt lat="44.54009" lon="3.95866">
        <ele>666.43</ele>
        <time>2019-06-01T07:22:33Z</time>
      </trkpt>
      <trkpt lat="44.54016" lon="3.95842">
        <ele>671.6</ele>
        <time>2019-06-01T07:23:10Z</time>
      </trkpt>
      <trkpt lat="44.5403" lon="3.95824">
        <ele>675.96</ele>
        <time>2019-06-01T07:23:38Z</time>
      </trkpt>
      <trkpt lat="44.54044" lon="3.95805">
        <ele>678.83</ele>
        <time>2019-06-01T07:23:57Z</time>
      </trkpt>
      <trkpt lat="44.54053" lon="3.95782">
        <ele>681.59</ele>
        <time>2019-06-01T07:24:14Z</time>
      </trkpt>
      <trkpt lat="44.54064" lon="3.9576">
        <ele>684.66</ele>
        <time>2019-06-01T07:24:33Z</time>
      </trkpt>
      <trkpt lat="44.54077" lon="3.9574">
        <ele>689.27</ele>
        <time>2019-06-01T07:25:00Z</time>
      </trkpt>
      <trkpt lat="44.54089" lon="3.9572">
        <ele>695.16</ele>
        <time>2019-06-01T07:25:40Z</time>
      </trkpt>
      <trkpt lat="44.54099" lon="3.95698">
        <ele>698.2</ele>
        <time>2019-06-01T07:26:12Z</time>
      </trkpt>
      <trkpt lat="44.54113" lon="3.95681">
        <ele>700.34</ele>
        <time>2019-06-01T07:26:31Z</time>
      </trkpt>
      <trkpt lat="44.54129" lon="3.95668">
        <ele>701.63</ele>
        <time>2019-06-01T07:26:46Z</time>
      </trkpt>
      <trkpt lat="44.54136" lon="3.95644">
        <ele>702.51</ele>
        <time>2019-06-01T07:26:59Z</time>
      </trkpt>
      <trkpt lat="44.54134" lon="3.95617">
        <ele>703.43</ele>
        <time>2019-06-01T07:27:25Z</time>
      </trkpt>
      <trkpt lat="44.54134" lon="3.95591">
        <ele>703.92</ele>
        <time>2019-06-01T07:27:43Z</time>
      </trkpt>
      <trkpt lat="44.54149" lon="3.95574">
        <ele>704.37</ele>
        <time>2019-06-01T07:28:02Z</time>
      </trkpt>
      <trkpt lat="44.54159" lon="3.95552">
        <ele>704.85</ele>
        <time>2019-06-01T07:28:22Z</time>
      </trkpt>
      <trkpt lat="44.54172" lon="3.95532">
        <ele>705.26</ele>
        <time>2019-06-01T07:28:39Z</time>
      </trkpt>
      <trkpt lat="44.54176" lon="3.95507">
        <ele>705.72</ele>
        <time>2019-06-01T07:29:06Z</time>
      </trkpt>
      <trkpt lat="44.54181" lon="3.95482">
        <ele>705.89</ele>
        <time>2019-06-01T07:29:23Z</time>
      </trkpt>
      <trkpt lat="44.54184" lon="3.95456">
        <ele>705.98</ele>
        <time>2019-06-01T07:29:41Z</time>
      </trkpt>
      <trkpt lat="44.54177" lon="3.9543">
        <ele>705.89</ele>
        <time>2019-06-01T07:30:08Z</time>
      </trkpt>
      <trkpt lat="44.54175" lon="3.95404">
        <ele>705.66</ele>
        <time>2019-06-01T07:30:38Z</time>
      </trkpt>
      <trkpt lat="44.54172" lon="3.95379">
        <ele>705.32</ele>
        <time>2019-06-01T07:31:08Z</time>
      </trkpt>
      <trkpt lat="44.54175" lon="3.95353">
        <ele>705.07</ele>
        <time>2019-06-01T07:31:39Z</time>
      </trkpt>
      <trkpt lat="44.54179" lon="3.95328">
        <ele>705.01</ele>
        <time>2019-06-01T07:32:15Z</time>
      </trkpt>
      <trkpt lat="44.5418" lon="3.95302">
        <ele>705.03</ele>
        <time>2019-06-01T07:32:28Z</time>
      </trkpt>
      <trkpt lat="44.54182" lon="3.95276">
        <ele>705.12</ele>
        <time>2019-06-01T07:32:51Z</time>
      </trkpt>
      <trkpt lat="44.54173" lon="3.95254">
        <ele>705.17</ele>
        <time>2019-06-01T07:33:16Z</time>
      </trkpt>
      <trkpt lat="44.54179" lon="3.95229">
        <ele>705.75</ele>
        <time>2019-06-01T07:33:44Z</time>
      </trkpt>
      <trkpt lat="44.54182" lon="3.95204">
        <ele>706.62</ele>
        <time>2019-06-01T07:34:02Z</time>
      </trkpt>
      <trkpt lat="44.54183" lon="3.95179">
        <ele>707.58</ele>
        <time>2019-06-01T07:34:26Z</time>
      </trkpt>
      <trkpt lat="44.54189" lon="3.95152">
        <ele>709.86</ele>
        <time>2019-06-01T07:35:30Z</time>
      </trkpt>
      <trkpt lat="44.54184" lon="3.95127">
        <ele>710.51</ele>
        <time>2019-06-01T07:35:52Z</time>
      </trkpt>
      <trkpt lat="44.54176" lon="3.95104">
        <ele>710.88</ele>
        <time>2019-06-01T07:36:18Z</time>
      </trkpt>
      <trkpt lat="44.54176" lon="3.95105">
        <ele>711.24</ele>
        <time>2019-06-01T07:36:25Z</time>
      </trkpt>
      <trkpt lat="44.54158" lon="3.95097">
        <ele>713.71</ele>
        <time>2019-06-01T07:36:55Z</time>
      </trkpt>
      <trkpt lat="44.54158" lon="3.95071">
        <ele>715.65</ele>
        <time>2019-06-01T07:37:19Z</time>
      </trkpt>
      <trkpt lat="44.54173" lon="3.95056">
        <ele>718.95</ele>
        <time>2019-06-01T07:37:53Z</time>
      </trkpt>
      <trkpt lat="44.5416" lon="3.95037">
        <ele>722.9</ele>
        <time>2019-06-01T07:38:35Z</time>
      </trkpt>
      <trkpt lat="44.54173" lon="3.95018">
        <ele>725.31</ele>
        <time>2019-06-01T07:38:58Z</time>
      </trkpt>
      <trkpt lat="44.5417" lon="3.94993">
        <ele>737.71</ele>
        <time>2019-06-01T07:40:13Z</time>
      </trkpt>
      <trkpt lat="44.54157" lon="3.94975">
        <ele>742.32</ele>
        <time>2019-06-01T07:40:53Z</time>
      </trkpt>
      <trkpt lat="44.54152" lon="3.94951">
        <ele>750.17</ele>
        <time>2019-06-01T07:42:00Z</time>
      </trkpt>
      <trkpt lat="44.54134" lon="3.94942">
        <ele>752.55</ele>
        <time>2019-06-01T07:42:15Z</time>
      </trkpt>
      <trkpt lat="44.54116" lon="3.94941">
        <ele>754.99</ele>
        <time>2019-06-01T07:42:31Z</time>
      </trkpt>
      <trkpt lat="44.54098" lon="3.94937">
        <ele>757.58</ele>
        <time>2019-06-01T07:42:47Z</time>
      </trkpt>
      <trkpt lat="44.54089" lon="3.94914">
        <ele>761.86</ele>
        <time>2019-06-01T07:43:18Z</time>
      </trkpt>
      <trkpt lat="44.54075" lon="3.94895">
        <ele>762.73</ele>
        <time>2019-06-01T07:43:26Z</time>
      </trkpt>
      <trkpt lat="44.54058" lon="3.94887">
        <ele>764.59</ele>
        <time>2019-06-01T07:43:44Z</time>
      </trkpt>
      <trkpt lat="44.54039" lon="3.9489">
        <ele>766.24</ele>
        <time>2019-06-01T07:44:07Z</time>
      </trkpt>
      <trkpt lat="44.5402" lon="3.94894">
        <ele>768.33</ele>
        <time>2019-06-01T07:44:39Z</time>
      </trkpt>
      <trkpt lat="44.54003" lon="3.94884">
        <ele>769.55</ele>
        <time>2019-06-01T07:45:07Z</time>
      </trkpt>
      <trkpt lat="44.53984" lon="3.94878">
        <ele>772.59</ele>
        <time>2019-06-01T07:45:54Z</time>
      </trkpt>
      <trkpt lat="44.53968" lon="3.94866">
        <ele>780.95</ele>
        <time>2019-06-01T07:47:04Z</time>
      </trkpt>
      <trkpt lat="44.53949" lon="3.94865">
        <ele>784.55</ele>
        <time>2019-06-01T07:47:26Z</time>
      </trkpt>
      <trkpt lat="44.53931" lon="3.94863">
        <ele>787.34</ele>
        <time>2019-06-01T07:47:50Z</time>
      </trkpt>
      <trkpt lat="44.53913" lon="3.9486">
        <ele>788.66</ele>
        <time>2019-06-01T07:48:05Z</time>
      </trkpt>
      <trkpt lat="44.53895" lon="3.94861">
        <ele>789.64</ele>
        <time>2019-06-01T07:48:17Z</time>
      </trkpt>
      <trkpt lat="44.53877" lon="3.94869">
        <ele>790.77</ele>
        <time>2019-06-01T07:48:33Z</time>
      </trkpt>
      <trkpt lat="44.5386" lon="3.9488">
        <ele>791.73</ele>
        <time>2019-06-01T07:48:51Z</time>
      </trkpt>
      <trkpt lat="44.53842" lon="3.94887">
        <ele>793.91</ele>
        <time>2019-06-01T07:49:56Z</time>
      </trkpt>
      <trkpt lat="44.53823" lon="3.94886">
        <ele>795.92</ele>
        <time>2019-06-01T07:50:20Z</time>
      </trkpt>
      <trkpt lat="44.53822" lon="3.94859">
        <ele>797.93</ele>
        <time>2019-06-01T07:50:49Z</time>
      </trkpt>
      <trkpt lat="44.53833" lon="3.94839">
        <ele>799.58</ele>
        <time>2019-06-01T07:51:12Z</time>
      </trkpt>
      <trkpt lat="44.53826" lon="3.94815">
        <ele>803.36</ele>
        <time>2019-06-01T07:52:12Z</time>
      </trkpt>
      <trkpt lat="44.53824" lon="3.94789">
        <ele>807.19</ele>
        <time>2019-06-01T07:52:51Z</time>
      </trkpt>
      <trkpt lat="44.53806" lon="3.94787">
        <ele>808.96</ele>
        <time>2019-06-01T07:53:10Z</time>
      </trkpt>
      <trkpt lat="44.53788" lon="3.94793">
        <ele>810.66</ele>
        <time>2019-06-01T07:53:25Z</time>
      </trkpt>
      <trkpt lat="44.53769" lon="3.94791">
        <ele>813.45</ele>
        <time>2019-06-01T07:53:44Z</time>
      </trkpt>
      <trkpt lat="44.53752" lon="3.94784">
        <ele>817.56</ele>
        <time>2019-06-01T07:54:09Z</time>
      </trkpt>
      <trkpt lat="44.53734" lon="3.94774">
        <ele>820.16</ele>
        <time>2019-06-01T07:54:27Z</time>
      </trkpt>
      <trkpt lat="44.53714" lon="3.94772">
        <ele>822.21</ele>
        <time>2019-06-01T07:54:42Z</time>
      </trkpt>
      <trkpt lat="44.53696" lon="3.94777">
        <ele>828.54</ele>
        <time>2019-06-01T07:55:08Z</time>
      </trkpt>
      <trkpt lat="44.53677" lon="3.9478">
        <ele>834.24</ele>
        <time>2019-06-01T07:55:28Z</time>
      </trkpt>
      <trkpt lat="44.53659" lon="3.94776">
        <ele>841.43</ele>
        <time>2019-06-01T07:56:03Z</time>
      </trkpt>
      <trkpt lat="44.53648" lon="3.94756">
        <ele>851.49</ele>
        <time>2019-06-01T07:57:11Z</time>
      </trkpt>
      <trkpt lat="44.53637" lon="3.94733">
        <ele>853.65</ele>
        <time>2019-06-01T07:57:32Z</time>
      </trkpt>
      <trkpt lat="44.5363" lon="3.94709">
        <ele>854.91</ele>
        <time>2019-06-01T07:57:51Z</time>
      </trkpt>
      <trkpt lat="44.53615" lon="3.94694">
        <ele>855.96</ele>
        <time>2019-06-01T07:58:18Z</time>
      </trkpt>
      <trkpt lat="44.53603" lon="3.94675">
        <ele>856.74</ele>
        <time>2019-06-01T07:59:13Z</time>
      </trkpt>
      <trkpt lat="44.53586" lon="3.94666">
        <ele>856.87</ele>
        <time>2019-06-01T08:00:02Z</time>
      </trkpt>
      <trkpt lat="44.53572" lon="3.94685">
        <ele>856.75</ele>
        <time>2019-06-01T08:00:20Z</time>
      </trkpt>
      <trkpt lat="44.53553" lon="3.94687">
        <ele>856.48</ele>
        <time>2019-06-01T08:00:37Z</time>
      </trkpt>
    </trkseg>
  </trk>
</gpx>